createdAt,value
2022-10-19T00:08:41.886Z,13.90
2022-10-19T00:28:41.847Z,13.96
2022-10-19T00:48:41.829Z,13.84
2022-10-19T01:08:41.844Z,13.78
2022-10-19T01:28:41.788Z,13.76
2022-10-19T01:48:41.754Z,13.67
2022-10-19T02:08:41.719Z,13.63
2022-10-19T02:28:41.706Z,13.73
2022-10-19T02:48:41.700Z,13.76
2022-10-19T03:08:41.683Z,13.84
2022-10-19T03:28:41.623Z,13.89
2022-10-19T03:48:41.645Z,13.91
2022-10-19T04:08:41.580Z,13.96
2022-10-19T04:28:41.538Z,14.01
2022-10-19T04:48:41.535Z,13.86
2022-10-19T05:08:41.535Z,13.92
2022-10-19T05:28:41.483Z,13.89
2022-10-19T05:48:41.458Z,13.90
2022-10-19T06:08:41.441Z,14.00
2022-10-19T06:28:41.413Z,14.06
2022-10-19T06:48:41.415Z,14.15
2022-10-19T07:08:41.361Z,14.24
2022-10-19T07:28:41.325Z,14.32
2022-10-19T07:48:41.346Z,14.37
2022-10-19T08:08:41.280Z,14.44
2022-10-19T08:28:41.265Z,14.54
2022-10-19T08:48:41.274Z,14.69
2022-10-19T09:08:41.230Z,14.78
2022-10-19T09:28:41.178Z,14.92
2022-10-19T09:48:41.152Z,15.11
2022-10-19T10:08:41.138Z,15.39
2022-10-19T10:28:41.112Z,15.55
2022-10-19T10:48:41.078Z,15.55
2022-10-19T11:08:41.047Z,15.72
2022-10-19T11:28:41.072Z,15.74
2022-10-19T11:48:41.001Z,15.76
2022-10-19T12:08:40.989Z,15.88
2022-10-19T12:28:40.939Z,16.23
2022-10-19T12:48:40.918Z,16.27
2022-10-19T13:08:40.919Z,16.33
2022-10-19T13:28:40.894Z,16.36
2022-10-19T13:48:40.835Z,16.64
2022-10-19T14:08:40.805Z,16.47
2022-10-19T14:28:40.780Z,16.50
2022-10-19T14:48:40.756Z,16.35
2022-10-19T15:08:40.723Z,16.11
2022-10-19T15:28:40.707Z,16.08
2022-10-19T15:48:40.682Z,15.95
2022-10-19T16:08:40.643Z,15.61
2022-10-19T16:28:40.618Z,15.34
2022-10-19T16:48:40.596Z,15.01
2022-10-19T17:08:40.577Z,14.69
2022-10-19T17:28:40.548Z,14.33
2022-10-19T17:48:40.521Z,14.12
2022-10-19T18:08:40.486Z,13.86
2022-10-19T18:28:40.471Z,13.57
2022-10-19T18:48:40.441Z,13.37
2022-10-19T19:08:40.435Z,13.23
2022-10-19T19:28:40.407Z,12.96
2022-10-19T19:48:40.377Z,12.84
2022-10-19T20:08:40.347Z,12.73
2022-10-19T20:28:40.326Z,12.55
2022-10-19T20:48:40.290Z,12.35
2022-10-19T21:08:40.282Z,12.19
2022-10-19T21:28:40.249Z,12.05
2022-10-19T21:48:40.235Z,11.79
2022-10-19T22:08:40.221Z,11.71
2022-10-19T22:28:40.217Z,11.61
2022-10-19T22:48:40.176Z,11.29
2022-10-19T23:08:40.146Z,11.12
2022-10-19T23:28:40.163Z,10.87
2022-10-19T23:48:40.128Z,11.20
